Ginga — JJ4054 — position and weather

sailwx.info

Track history (hours):
 
Tides and Currents Weather Stations Pressure Air Temp Water Temp Dewpoint Dewpoint Depression Visibility Wind Speed Wind Dir Waves Ship Positions

Ginga

Last reported at 2017-Jul-25 21:32 UTC. Time now 2017-Jul-25 22:32 UTC.
Position N 34°39' E 135°09'.

Length 28 m; draft 1.6 m.

Type: Other ship. MMSI: 431301704.

Date/timePositionNaut miles runAvg speedWind from/ knotsBaromVisibWave heightAir tempDewpointWater temp
2017-Jul-25 21:32N 34°39' E 135°09'0 0.0
2017-Jul-25 21:30N 34°39' E 135°09'611.9
2017-Jul-25 21:00N 34°37' E 135°02'1 1.6
2017-Jul-25 20:25N 34°37' E 135°01'3 8.3
2017-Jul-25 20:00N 34°35' E 135°05'3 6.1
2017-Jul-25 19:30N 34°36' E 135°08'3 6.6
2017-Jul-25 19:00N 34°39' E 135°09'0 0.0
2017-Jul-25 18:30N 34°39' E 135°09'0 0.0
2017-Jul-24 05:51N 34°39' E 135°09'412.5
2017-Jul-24 05:30N 34°37' E 135°14'816.0
2017-Jul-24 05:00N 34°34' E 135°23'2 3.1
2017-Jul-24 04:23N 34°33' E 135°25'6 7.6
2017-Jul-24 03:38N 34°33' E 135°18'0 2.7
2017-Jul-24 03:30N 34°34' E 135°18'715.2
2017-Jul-24 03:00N 34°36' E 135°10'6 1.6
2017-Jul-23 23:34N 34°38' E 135°03'0 5.9
2017-Jul-23 23:29N 34°37' E 135°02'1 2.1
2017-Jul-23 22:58N 34°37' E 135°01'510.0
2017-Jul-23 22:30N 34°35' E 135°06'3 6.7
2017-Jul-23 22:00N 34°37' E 135°09'2 3.8
2017-Jul-23 21:30N 34°39' E 135°09'0 0.0
2017-Jul-23 21:00N 34°39' E 135°09'0 0.0
2017-Jul-23 03:24N 34°39' E 135°09'411.1
2017-Jul-23 03:01N 34°36' E 135°06'6 5.9
2017-Jul-23 01:57N 34°38' E 134°58'4 0.5
2017-Jul-22 18:44N 34°38' E 135°03'413.5
2017-Jul-22 18:29N 34°38' E 134°59'2 4.0
2017-Jul-22 17:59N 34°37' E 135°01'4 9.0
2017-Jul-22 17:30N 34°36' E 135°06'4 8.3
2017-Jul-22 17:00N 34°38' E 135°10'1 2.1
2017-Jul-22 16:30N 34°39' E 135°09'0 0.0
2017-Jul-22 05:20N 34°39' E 135°09'310.1
2017-Jul-22 05:00N 34°36' E 135°07'7 7.7
2017-Jul-22 04:05N 34°38' E 134°59'3 7.5
2017-Jul-22 03:40N 34°38' E 135°02'1 4.9
2017-Jul-22 03:29N 34°37' E 135°03'714.4
2017-Jul-22 03:00N 34°39' E 135°11'1 2.1
2017-Jul-22 02:30N 34°40' E 135°11'2 0.3
2017-Jul-21 19:46N 34°39' E 135°09'2 8.2
2017-Jul-21 19:30N 34°37' E 135°08'816.0
2017-Jul-21 18:59N 34°38' E 134°58'3 6.3
2017-Jul-21 18:30N 34°37' E 135°01'5 9.1
2017-Jul-21 18:00N 34°35' E 135°06'3 7.0
2017-Jul-21 17:30N 34°31' E 135°08'510.5
2017-Jul-21 17:00N 34°27' E 135°05'17 9.7
2017-Jul-21 15:17N 34°11' E 134°59'8 9.6
2017-Jul-21 14:29N 34°18' E 134°59'816.4
2017-Jul-21 13:59N 34°26' E 135°03'816.4
2017-Jul-21 13:30N 34°33' E 135°06'613.0
2017-Jul-21 13:01N 34°39' E 135°10'0 0.0
2017-Jul-20 02:55N 34°39' E 135°09'512.2
2017-Jul-20 02:30N 34°35' E 135°05'6 7.2
2017-Jul-20 01:39N 34°38' E 134°58'314.6
2017-Jul-20 01:27N 34°37' E 135°02'715.5
2017-Jul-20 01:00N 34°39' E 135°10'0 0.8
2017-Jul-20 00:30N 34°39' E 135°09'0 0.0
2017-Jul-20 00:00N 34°39' E 135°09'0 0.0
2017-Jul-19 06:17N 34°39' E 135°09'2 8.5
2017-Jul-19 06:00N 34°38' E 135°07'815.0
2017-Jul-19 05:30N 34°38' E 134°58'611.8
2017-Jul-19 04:59N 34°36' E 135°05'2 4.5
2017-Jul-19 04:30N 34°35' E 135°08'5 0.9
2017-Jul-18 23:43N 34°38' E 135°03'416.1
2017-Jul-18 23:29N 34°38' E 134°59'3 7.4
2017-Jul-18 23:00N 34°37' E 135°03'4 7.7
2017-Jul-18 22:30N 34°35' E 135°07'4 8.4
2017-Jul-18 22:00N 34°39' E 135°10'0 0.2
2017-Jul-18 21:31N 34°39' E 135°09'0 0.0
2017-Jul-18 10:51N 34°39' E 135°09'411.0
2017-Jul-18 10:30N 34°37' E 135°06'6 5.5
2017-Jul-18 09:26N 34°38' E 134°59'4 1.5
2017-Jul-18 06:57N 34°38' E 135°03'2 3.2
2017-Jul-18 06:23N 34°37' E 135°01'3 4.4
2017-Jul-18 05:47N 34°38' E 134°58'413.3
2017-Jul-18 05:30N 34°37' E 135°03'0 0.2
2017-Jul-18 03:26N 34°38' E 135°03'2 4.8
2017-Jul-18 03:00N 34°35' E 135°04'5 4.9
2017-Jul-18 02:00N 34°38' E 134°58'4 0.6
2017-Jul-17 19:42N 34°38' E 135°03'312.4
2017-Jul-17 19:29N 34°38' E 134°60'1 2.6
2017-Jul-17 19:00N 34°37' E 135°01'510.1
2017-Jul-17 18:30N 34°35' E 135°06'4 7.2
2017-Jul-17 18:00N 34°38' E 135°09'1 2.7
2017-Jul-17 17:30N 34°39' E 135°09'0 0.0
2017-Jul-17 06:56N 34°39' E 135°09'512.4
2017-Jul-17 06:31N 34°34' E 135°07'5 9.7
2017-Jul-17 05:58N 34°37' E 135°01'4 0.2
2017-Jul-16 01:17N 34°38' E 134°56'616.3
2017-Jul-16 00:56N 34°38' E 135°02'614.9
2017-Jul-16 00:30N 34°39' E 135°10'  
Track history (hours):
 
Tides and Currents Weather Stations Pressure Air Temp Water Temp Dewpoint Dewpoint Depression Visibility Wind Speed Wind Dir Waves Ship Positions

Ginga

Last reported at 2017-Jul-25 21:32 UTC. Time now 2017-Jul-25 22:32 UTC.
Position N 34°39' E 135°09'.

Length 28 m; draft 1.6 m.

Type: Other ship. MMSI: 431301704.

Date/timePositionNaut miles runAvg speedWind from/ knotsBaromVisibWave heightAir tempDewpointWater temp
2017-Jul-25 21:32N 34°39' E 135°09'0 0.0
2017-Jul-25 21:30N 34°39' E 135°09'611.9
2017-Jul-25 21:00N 34°37' E 135°02'1 1.6
2017-Jul-25 20:25N 34°37' E 135°01'3 8.3
2017-Jul-25 20:00N 34°35' E 135°05'3 6.1
2017-Jul-25 19:30N 34°36' E 135°08'3 6.6
2017-Jul-25 19:00N 34°39' E 135°09'0 0.0
2017-Jul-25 18:30N 34°39' E 135°09'0 0.0
2017-Jul-24 05:51N 34°39' E 135°09'412.5
2017-Jul-24 05:30N 34°37' E 135°14'816.0
2017-Jul-24 05:00N 34°34' E 135°23'2 3.1
2017-Jul-24 04:23N 34°33' E 135°25'6 7.6
2017-Jul-24 03:38N 34°33' E 135°18'0 2.7
2017-Jul-24 03:30N 34°34' E 135°18'715.2
2017-Jul-24 03:00N 34°36' E 135°10'6 1.6
2017-Jul-23 23:34N 34°38' E 135°03'0 5.9
2017-Jul-23 23:29N 34°37' E 135°02'1 2.1
2017-Jul-23 22:58N 34°37' E 135°01'510.0
2017-Jul-23 22:30N 34°35' E 135°06'3 6.7
2017-Jul-23 22:00N 34°37' E 135°09'2 3.8
2017-Jul-23 21:30N 34°39' E 135°09'0 0.0
2017-Jul-23 21:00N 34°39' E 135°09'0 0.0
2017-Jul-23 03:24N 34°39' E 135°09'411.1
2017-Jul-23 03:01N 34°36' E 135°06'6 5.9
2017-Jul-23 01:57N 34°38' E 134°58'4 0.5
2017-Jul-22 18:44N 34°38' E 135°03'413.5
2017-Jul-22 18:29N 34°38' E 134°59'2 4.0
2017-Jul-22 17:59N 34°37' E 135°01'4 9.0
2017-Jul-22 17:30N 34°36' E 135°06'4 8.3
2017-Jul-22 17:00N 34°38' E 135°10'1 2.1
2017-Jul-22 16:30N 34°39' E 135°09'0 0.0
2017-Jul-22 05:20N 34°39' E 135°09'310.1
2017-Jul-22 05:00N 34°36' E 135°07'7 7.7
2017-Jul-22 04:05N 34°38' E 134°59'3 7.5
2017-Jul-22 03:40N 34°38' E 135°02'1 4.9
2017-Jul-22 03:29N 34°37' E 135°03'714.4
2017-Jul-22 03:00N 34°39' E 135°11'1 2.1
2017-Jul-22 02:30N 34°40' E 135°11'2 0.3
2017-Jul-21 19:46N 34°39' E 135°09'2 8.2
2017-Jul-21 19:30N 34°37' E 135°08'816.0
2017-Jul-21 18:59N 34°38' E 134°58'3 6.3
2017-Jul-21 18:30N 34°37' E 135°01'5 9.1
2017-Jul-21 18:00N 34°35' E 135°06'3 7.0
2017-Jul-21 17:30N 34°31' E 135°08'510.5
2017-Jul-21 17:00N 34°27' E 135°05'17 9.7
2017-Jul-21 15:17N 34°11' E 134°59'8 9.6
2017-Jul-21 14:29N 34°18' E 134°59'816.4
2017-Jul-21 13:59N 34°26' E 135°03'816.4
2017-Jul-21 13:30N 34°33' E 135°06'613.0
2017-Jul-21 13:01N 34°39' E 135°10'0 0.0
2017-Jul-20 02:55N 34°39' E 135°09'512.2
2017-Jul-20 02:30N 34°35' E 135°05'6 7.2
2017-Jul-20 01:39N 34°38' E 134°58'314.6
2017-Jul-20 01:27N 34°37' E 135°02'715.5
2017-Jul-20 01:00N 34°39' E 135°10'0 0.8
2017-Jul-20 00:30N 34°39' E 135°09'0 0.0
2017-Jul-20 00:00N 34°39' E 135°09'0 0.0
2017-Jul-19 06:17N 34°39' E 135°09'2 8.5
2017-Jul-19 06:00N 34°38' E 135°07'815.0
2017-Jul-19 05:30N 34°38' E 134°58'611.8
2017-Jul-19 04:59N 34°36' E 135°05'2 4.5
2017-Jul-19 04:30N 34°35' E 135°08'5 0.9
2017-Jul-18 23:43N 34°38' E 135°03'416.1
2017-Jul-18 23:29N 34°38' E 134°59'3 7.4
2017-Jul-18 23:00N 34°37' E 135°03'4 7.7
2017-Jul-18 22:30N 34°35' E 135°07'4 8.4
2017-Jul-18 22:00N 34°39' E 135°10'0 0.2
2017-Jul-18 21:31N 34°39' E 135°09'0 0.0
2017-Jul-18 10:51N 34°39' E 135°09'411.0
2017-Jul-18 10:30N 34°37' E 135°06'6 5.5
2017-Jul-18 09:26N 34°38' E 134°59'4 1.5
2017-Jul-18 06:57N 34°38' E 135°03'2 3.2
2017-Jul-18 06:23N 34°37' E 135°01'3 4.4
2017-Jul-18 05:47N 34°38' E 134°58'413.3
2017-Jul-18 05:30N 34°37' E 135°03'0 0.2
2017-Jul-18 03:26N 34°38' E 135°03'2 4.8
2017-Jul-18 03:00N 34°35' E 135°04'5 4.9
2017-Jul-18 02:00N 34°38' E 134°58'4 0.6
2017-Jul-17 19:42N 34°38' E 135°03'312.4
2017-Jul-17 19:29N 34°38' E 134°60'1 2.6
2017-Jul-17 19:00N 34°37' E 135°01'510.1
2017-Jul-17 18:30N 34°35' E 135°06'4 7.2
2017-Jul-17 18:00N 34°38' E 135°09'1 2.7
2017-Jul-17 17:30N 34°39' E 135°09'0 0.0
2017-Jul-17 06:56N 34°39' E 135°09'512.4
2017-Jul-17 06:31N 34°34' E 135°07'5 9.7
2017-Jul-17 05:58N 34°37' E 135°01'4 0.2
2017-Jul-16 01:17N 34°38' E 134°56'616.3
2017-Jul-16 00:56N 34°38' E 135°02'614.9
2017-Jul-16 00:30N 34°39' E 135°10'  

Dump ship's entire track history